sensor_id;sensor_type;location;lat;lon;timestamp;P1;durP1;ratioP1;P2;durP2;ratioP2
26750;SDS011;14345;48.272;25.926;2023-05-10T00:00:08;13.20;;;8.95;;
26750;SDS011;14345;48.272;25.926;2023-05-10T00:02:34;13.82;;;9.38;;
26750;SDS011;14345;48.272;25.926;2023-05-10T00:05:01;14.90;;;10.02;;
26750;SDS011;14345;48.272;25.926;2023-05-10T00:07:27;13.38;;;9.75;;
26750;SDS011;14345;48.272;25.926;2023-05-10T00:09:53;16.15;;;9.85;;
26750;SDS011;14345;48.272;25.926;2023-05-10T00:12:19;15.82;;;10.20;;
26750;SDS011;14345;48.272;25.926;2023-05-10T00:14:45;17.83;;;10.70;;
26750;SDS011;14345;48.272;25.926;2023-05-10T00:17:11;14.65;;;9.95;;
26750;SDS011;14345;48.272;25.926;2023-05-10T00:19:37;16.50;;;9.85;;
26750;SDS011;14345;48.272;25.926;2023-05-10T00:22:03;14.18;;;9.60;;
26750;SDS011;14345;48.272;25.926;2023-05-10T00:24:29;20.67;;;10.43;;
26750;SDS011;14345;48.272;25.926;2023-05-10T00:26:55;15.48;;;10.10;;
26750;SDS011;14345;48.272;25.926;2023-05-10T00:29:21;15.15;;;10.35;;
26750;SDS011;14345;48.272;25.926;2023-05-10T00:31:47;18.83;;;10.60;;
26750;SDS011;14345;48.272;25.926;2023-05-10T00:34:13;17.52;;;10.75;;
26750;SDS011;14345;48.272;25.926;2023-05-10T00:36:39;15.32;;;10.13;;
26750;SDS011;14345;48.272;25.926;2023-05-10T00:39:05;17.98;;;10.40;;
26750;SDS011;14345;48.272;25.926;2023-05-10T00:41:31;15.38;;;10.02;;
26750;SDS011;14345;48.272;25.926;2023-05-10T00:43:57;18.88;;;10.68;;
26750;SDS011;14345;48.272;25.926;2023-05-10T00:46:24;17.50;;;10.02;;
26750;SDS011;14345;48.272;25.926;2023-05-10T00:48:50;17.38;;;10.40;;
26750;SDS011;14345;48.272;25.926;2023-05-10T00:51:16;18.00;;;11.20;;
26750;SDS011;14345;48.272;25.926;2023-05-10T00:53:43;16.08;;;10.63;;
26750;SDS011;14345;48.272;25.926;2023-05-10T00:56:09;17.25;;;10.93;;
26750;SDS011;14345;48.272;25.926;2023-05-10T00:58:35;15.18;;;10.45;;
26750;SDS011;14345;48.272;25.926;2023-05-10T01:01:02;18.33;;;10.68;;
26750;SDS011;14345;48.272;25.926;2023-05-10T01:03:28;16.58;;;11.05;;
26750;SDS011;14345;48.272;25.926;2023-05-10T01:05:54;16.40;;;11.00;;
26750;SDS011;14345;48.272;25.926;2023-05-10T01:08:20;16.83;;;11.05;;
26750;SDS011;14345;48.272;25.926;2023-05-10T01:10:47;16.30;;;10.55;;
26750;SDS011;14345;48.272;25.926;2023-05-10T01:13:15;16.50;;;10.93;;
26750;SDS011;14345;48.272;25.926;2023-05-10T01:15:44;16.13;;;9.75;;
26750;SDS011;14345;48.272;25.926;2023-05-10T01:18:11;17.40;;;11.23;;
26750;SDS011;14345;48.272;25.926;2023-05-10T01:20:40;18.60;;;11.80;;
26750;SDS011;14345;48.272;25.926;2023-05-10T01:35:40;15.75;;;11.18;;
26750;SDS011;14345;48.272;25.926;2023-05-10T01:40:58;17.88;;;10.90;;
26750;SDS011;14345;48.272;25.926;2023-05-10T01:43:28;15.52;;;10.20;;
26750;SDS011;14345;48.272;25.926;2023-05-10T01:46:01;16.35;;;10.40;;
26750;SDS011;14345;48.272;25.926;2023-05-10T01:48:35;13.25;;;8.38;;
26750;SDS011;14345;48.272;25.926;2023-05-10T01:51:01;14.45;;;8.95;;
26750;SDS011;14345;48.272;25.926;2023-05-10T01:53:28;14.07;;;9.45;;
26750;SDS011;14345;48.272;25.926;2023-05-10T01:55:55;15.18;;;9.75;;
26750;SDS011;14345;48.272;25.926;2023-05-10T01:58:22;15.68;;;9.18;;
26750;SDS011;14345;48.272;25.926;2023-05-10T02:00:49;14.23;;;8.82;;
26750;SDS011;14345;48.272;25.926;2023-05-10T02:03:16;12.30;;;8.32;;
26750;SDS011;14345;48.272;25.926;2023-05-10T02:05:44;12.25;;;8.57;;
26750;SDS011;14345;48.272;25.926;2023-05-10T02:08:11;12.63;;;9.05;;
26750;SDS011;14345;48.272;25.926;2023-05-10T02:10:39;12.13;;;8.75;;
26750;SDS011;14345;48.272;25.926;2023-05-10T02:13:05;14.85;;;9.75;;
26750;SDS011;14345;48.272;25.926;2023-05-10T02:15:32;14.77;;;9.25;;
26750;SDS011;14345;48.272;25.926;2023-05-10T02:17:59;15.65;;;10.20;;
26750;SDS011;14345;48.272;25.926;2023-05-10T02:20:26;14.30;;;9.25;;
26750;SDS011;14345;48.272;25.926;2023-05-10T02:22:52;12.85;;;9.45;;
26750;SDS011;14345;48.272;25.926;2023-05-10T02:25:20;15.10;;;9.70;;
26750;SDS011;14345;48.272;25.926;2023-05-10T02:27:47;13.07;;;9.07;;
26750;SDS011;14345;48.272;25.926;2023-05-10T02:30:14;12.98;;;9.23;;
26750;SDS011;14345;48.272;25.926;2023-05-10T02:32:40;12.90;;;9.45;;
26750;SDS011;14345;48.272;25.926;2023-05-10T02:35:07;14.40;;;9.93;;
26750;SDS011;14345;48.272;25.926;2023-05-10T02:37:34;13.55;;;9.52;;
26750;SDS011;14345;48.272;25.926;2023-05-10T02:40:01;14.40;;;9.75;;
26750;SDS011;14345;48.272;25.926;2023-05-10T02:42:29;15.07;;;9.75;;
26750;SDS011;14345;48.272;25.926;2023-05-10T02:44:56;15.65;;;9.77;;
26750;SDS011;14345;48.272;25.926;2023-05-10T02:47:25;15.10;;;10.32;;
26750;SDS011;14345;48.272;25.926;2023-05-10T02:49:51;16.40;;;11.02;;
26750;SDS011;14345;48.272;25.926;2023-05-10T02:52:19;14.23;;;10.50;;
26750;SDS011;14345;48.272;25.926;2023-05-10T02:54:48;13.80;;;9.80;;
26750;SDS011;14345;48.272;25.926;2023-05-10T02:57:15;14.80;;;10.77;;
26750;SDS011;14345;48.272;25.926;2023-05-10T02:59:44;14.10;;;10.60;;
26750;SDS011;14345;48.272;25.926;2023-05-10T03:02:10;18.83;;;12.88;;
26750;SDS011;14345;48.272;25.926;2023-05-10T03:04:37;23.33;;;15.43;;
26750;SDS011;14345;48.272;25.926;2023-05-10T03:07:03;21.90;;;14.32;;
26750;SDS011;14345;48.272;25.926;2023-05-10T03:09:29;22.20;;;14.77;;
26750;SDS011;14345;48.272;25.926;2023-05-10T03:14:53;19.52;;;14.10;;
26750;SDS011;14345;48.272;25.926;2023-05-10T03:20:08;23.23;;;15.90;;
26750;SDS011;14345;48.272;25.926;2023-05-10T03:25:26;32.25;;;20.25;;
26750;SDS011;14345;48.272;25.926;2023-05-10T03:27:52;27.23;;;18.08;;
26750;SDS011;14345;48.272;25.926;2023-05-10T03:30:18;27.27;;;16.58;;
26750;SDS011;14345;48.272;25.926;2023-05-10T03:32:45;21.75;;;15.75;;
26750;SDS011;14345;48.272;25.926;2023-05-10T03:35:11;24.15;;;16.27;;
26750;SDS011;14345;48.272;25.926;2023-05-10T03:37:40;30.88;;;19.42;;
26750;SDS011;14345;48.272;25.926;2023-05-10T03:40:07;30.85;;;20.00;;
26750;SDS011;14345;48.272;25.926;2023-05-10T03:42:33;32.58;;;20.52;;
26750;SDS011;14345;48.272;25.926;2023-05-10T03:44:59;30.63;;;19.38;;
26750;SDS011;14345;48.272;25.926;2023-05-10T03:47:25;27.90;;;17.65;;
26750;SDS011;14345;48.272;25.926;2023-05-10T03:49:51;26.13;;;16.25;;
26750;SDS011;14345;48.272;25.926;2023-05-10T03:52:17;23.48;;;15.32;;
26750;SDS011;14345;48.272;25.926;2023-05-10T03:54:43;21.20;;;14.18;;
26750;SDS011;14345;48.272;25.926;2023-05-10T03:57:09;18.63;;;12.63;;
26750;SDS011;14345;48.272;25.926;2023-05-10T03:59:35;19.33;;;12.10;;
26750;SDS011;14345;48.272;25.926;2023-05-10T04:02:01;19.60;;;12.95;;
26750;SDS011;14345;48.272;25.926;2023-05-10T04:04:27;21.00;;;13.52;;
26750;SDS011;14345;48.272;25.926;2023-05-10T04:06:53;22.38;;;14.13;;
26750;SDS011;14345;48.272;25.926;2023-05-10T04:09:19;21.42;;;13.73;;
26750;SDS011;14345;48.272;25.926;2023-05-10T04:11:45;18.17;;;12.85;;
26750;SDS011;14345;48.272;25.926;2023-05-10T04:14:11;18.58;;;12.40;;
26750;SDS011;14345;48.272;25.926;2023-05-10T04:16:37;18.23;;;11.98;;
26750;SDS011;14345;48.272;25.926;2023-05-10T04:19:03;18.83;;;12.05;;
26750;SDS011;14345;48.272;25.926;2023-05-10T04:21:29;17.25;;;11.73;;
26750;SDS011;14345;48.272;25.926;2023-05-10T04:23:55;16.92;;;10.90;;
26750;SDS011;14345;48.272;25.926;2023-05-10T04:26:22;17.83;;;10.52;;
26750;SDS011;14345;48.272;25.926;2023-05-10T04:28:48;16.35;;;10.45;;
26750;SDS011;14345;48.272;25.926;2023-05-10T04:31:14;14.02;;;9.98;;
26750;SDS011;14345;48.272;25.926;2023-05-10T04:33:40;14.20;;;9.55;;
26750;SDS011;14345;48.272;25.926;2023-05-10T04:36:06;14.60;;;10.02;;
26750;SDS011;14345;48.272;25.926;2023-05-10T04:38:32;14.48;;;9.60;;
26750;SDS011;14345;48.272;25.926;2023-05-10T04:41:05;15.27;;;9.70;;
26750;SDS011;14345;48.272;25.926;2023-05-10T04:43:31;14.40;;;9.48;;
26750;SDS011;14345;48.272;25.926;2023-05-10T04:45:57;14.82;;;9.73;;
26750;SDS011;14345;48.272;25.926;2023-05-10T04:48:23;16.00;;;9.82;;
26750;SDS011;14345;48.272;25.926;2023-05-10T04:50:49;14.57;;;9.60;;
26750;SDS011;14345;48.272;25.926;2023-05-10T04:53:15;15.55;;;10.85;;
26750;SDS011;14345;48.272;25.926;2023-05-10T04:55:41;21.38;;;13.05;;
26750;SDS011;14345;48.272;25.926;2023-05-10T04:58:07;24.38;;;16.08;;
26750;SDS011;14345;48.272;25.926;2023-05-10T05:00:33;23.42;;;15.40;;
26750;SDS011;14345;48.272;25.926;2023-05-10T05:03:00;22.05;;;13.65;;
26750;SDS011;14345;48.272;25.926;2023-05-10T05:05:26;19.20;;;13.48;;
26750;SDS011;14345;48.272;25.926;2023-05-10T05:07:52;16.58;;;11.10;;
26750;SDS011;14345;48.272;25.926;2023-05-10T05:10:18;16.40;;;11.40;;
26750;SDS011;14345;48.272;25.926;2023-05-10T05:12:44;18.20;;;11.00;;
26750;SDS011;14345;48.272;25.926;2023-05-10T05:15:10;14.85;;;10.23;;
26750;SDS011;14345;48.272;25.926;2023-05-10T05:17:36;15.57;;;10.52;;
26750;SDS011;14345;48.272;25.926;2023-05-10T05:20:02;15.60;;;10.18;;
26750;SDS011;14345;48.272;25.926;2023-05-10T05:22:29;14.20;;;10.75;;
26750;SDS011;14345;48.272;25.926;2023-05-10T05:24:55;19.25;;;11.60;;
26750;SDS011;14345;48.272;25.926;2023-05-10T05:27:21;17.60;;;11.13;;
26750;SDS011;14345;48.272;25.926;2023-05-10T05:29:52;23.55;;;12.85;;
26750;SDS011;14345;48.272;25.926;2023-05-10T05:32:18;19.05;;;11.93;;
26750;SDS011;14345;48.272;25.926;2023-05-10T05:34:44;18.27;;;12.35;;
26750;SDS011;14345;48.272;25.926;2023-05-10T05:37:20;19.63;;;11.32;;
26750;SDS011;14345;48.272;25.926;2023-05-10T05:39:47;15.32;;;10.15;;
26750;SDS011;14345;48.272;25.926;2023-05-10T05:42:13;16.92;;;10.52;;
26750;SDS011;14345;48.272;25.926;2023-05-10T05:44:41;22.75;;;9.48;;
26750;SDS011;14345;48.272;25.926;2023-05-10T05:47:07;14.85;;;9.55;;
26750;SDS011;14345;48.272;25.926;2023-05-10T05:49:33;14.05;;;9.35;;
26750;SDS011;14345;48.272;25.926;2023-05-10T05:51:59;15.80;;;10.25;;
26750;SDS011;14345;48.272;25.926;2023-05-10T05:54:26;14.70;;;9.73;;
26750;SDS011;14345;48.272;25.926;2023-05-10T05:56:58;18.80;;;10.07;;
26750;SDS011;14345;48.272;25.926;2023-05-10T05:59:24;12.07;;;9.20;;
26750;SDS011;14345;48.272;25.926;2023-05-10T06:01:50;16.02;;;10.38;;
26750;SDS011;14345;48.272;25.926;2023-05-10T06:04:17;17.17;;;11.48;;
26750;SDS011;14345;48.272;25.926;2023-05-10T06:06:43;17.48;;;10.38;;
26750;SDS011;14345;48.272;25.926;2023-05-10T06:09:09;17.45;;;10.52;;
26750;SDS011;14345;48.272;25.926;2023-05-10T06:11:36;17.73;;;9.93;;
26750;SDS011;14345;48.272;25.926;2023-05-10T06:14:02;12.63;;;8.55;;
26750;SDS011;14345;48.272;25.926;2023-05-10T06:16:33;16.15;;;7.18;;
26750;SDS011;14345;48.272;25.926;2023-05-10T06:18:59;11.23;;;7.25;;
26750;SDS011;14345;48.272;25.926;2023-05-10T06:21:25;11.43;;;7.00;;
26750;SDS011;14345;48.272;25.926;2023-05-10T06:23:51;9.93;;;6.07;;
26750;SDS011;14345;48.272;25.926;2023-05-10T06:26:17;9.95;;;6.60;;
26750;SDS011;14345;48.272;25.926;2023-05-10T06:28:43;12.48;;;6.82;;
26750;SDS011;14345;48.272;25.926;2023-05-10T06:31:09;7.82;;;5.80;;
26750;SDS011;14345;48.272;25.926;2023-05-10T06:33:36;10.90;;;6.10;;
26750;SDS011;14345;48.272;25.926;2023-05-10T06:36:02;8.90;;;6.50;;
26750;SDS011;14345;48.272;25.926;2023-05-10T06:38:28;10.23;;;7.05;;
26750;SDS011;14345;48.272;25.926;2023-05-10T06:40:54;15.35;;;7.63;;
26750;SDS011;14345;48.272;25.926;2023-05-10T06:43:20;13.63;;;8.00;;
26750;SDS011;14345;48.272;25.926;2023-05-10T06:45:47;10.93;;;7.00;;
26750;SDS011;14345;48.272;25.926;2023-05-10T06:48:13;12.98;;;7.72;;
26750;SDS011;14345;48.272;25.926;2023-05-10T06:50:39;9.25;;;6.93;;
26750;SDS011;14345;48.272;25.926;2023-05-10T06:53:05;10.65;;;6.88;;
26750;SDS011;14345;48.272;25.926;2023-05-10T06:55:31;15.23;;;6.82;;
26750;SDS011;14345;48.272;25.926;2023-05-10T06:57:57;10.57;;;6.65;;
26750;SDS011;14345;48.272;25.926;2023-05-10T07:00:23;11.30;;;5.28;;
26750;SDS011;14345;48.272;25.926;2023-05-10T07:02:50;7.43;;;5.30;;
26750;SDS011;14345;48.272;25.926;2023-05-10T07:05:16;9.20;;;5.38;;
26750;SDS011;14345;48.272;25.926;2023-05-10T07:07:42;11.07;;;5.70;;
26750;SDS011;14345;48.272;25.926;2023-05-10T07:10:08;7.60;;;5.03;;
26750;SDS011;14345;48.272;25.926;2023-05-10T07:12:34;12.45;;;6.90;;
26750;SDS011;14345;48.272;25.926;2023-05-10T07:15:00;8.48;;;5.60;;
26750;SDS011;14345;48.272;25.926;2023-05-10T07:17:26;10.05;;;6.25;;
26750;SDS011;14345;48.272;25.926;2023-05-10T07:19:52;9.25;;;5.65;;
26750;SDS011;14345;48.272;25.926;2023-05-10T07:22:18;8.60;;;5.53;;
26750;SDS011;14345;48.272;25.926;2023-05-10T07:24:44;8.32;;;5.55;;
26750;SDS011;14345;48.272;25.926;2023-05-10T07:27:10;8.75;;;5.72;;
26750;SDS011;14345;48.272;25.926;2023-05-10T07:29:36;8.23;;;5.00;;
26750;SDS011;14345;48.272;25.926;2023-05-10T07:32:02;8.63;;;5.75;;
26750;SDS011;14345;48.272;25.926;2023-05-10T07:34:28;8.25;;;5.55;;
26750;SDS011;14345;48.272;25.926;2023-05-10T07:36:56;7.80;;;5.05;;
26750;SDS011;14345;48.272;25.926;2023-05-10T07:39:22;11.10;;;5.30;;
26750;SDS011;14345;48.272;25.926;2023-05-10T07:41:48;8.57;;;5.45;;
26750;SDS011;14345;48.272;25.926;2023-05-10T07:44:14;13.65;;;7.18;;
26750;SDS011;14345;48.272;25.926;2023-05-10T07:46:43;11.27;;;5.30;;
26750;SDS011;14345;48.272;25.926;2023-05-10T07:49:09;7.47;;;5.88;;
26750;SDS011;14345;48.272;25.926;2023-05-10T07:51:35;8.43;;;4.93;;
26750;SDS011;14345;48.272;25.926;2023-05-10T07:54:01;9.57;;;5.35;;
26750;SDS011;14345;48.272;25.926;2023-05-10T07:56:28;8.90;;;6.05;;
26750;SDS011;14345;48.272;25.926;2023-05-10T07:59:01;9.45;;;5.00;;
26750;SDS011;14345;48.272;25.926;2023-05-10T08:03:54;7.60;;;5.57;;
26750;SDS011;14345;48.272;25.926;2023-05-10T08:06:20;7.00;;;4.97;;
26750;SDS011;14345;48.272;25.926;2023-05-10T08:08:47;10.10;;;5.63;;
26750;SDS011;14345;48.272;25.926;2023-05-10T08:11:14;7.28;;;5.38;;
26750;SDS011;14345;48.272;25.926;2023-05-10T08:13:41;11.10;;;6.10;;
26750;SDS011;14345;48.272;25.926;2023-05-10T08:16:07;8.23;;;4.85;;
26750;SDS011;14345;48.272;25.926;2023-05-10T08:18:33;7.93;;;5.05;;
26750;SDS011;14345;48.272;25.926;2023-05-10T08:20:59;10.82;;;5.47;;
26750;SDS011;14345;48.272;25.926;2023-05-10T08:23:25;7.53;;;5.70;;
26750;SDS011;14345;48.272;25.926;2023-05-10T08:25:51;6.47;;;4.68;;
26750;SDS011;14345;48.272;25.926;2023-05-10T08:28:17;6.43;;;4.47;;
26750;SDS011;14345;48.272;25.926;2023-05-10T08:30:43;8.00;;;4.82;;
26750;SDS011;14345;48.272;25.926;2023-05-10T08:33:09;7.05;;;4.72;;
26750;SDS011;14345;48.272;25.926;2023-05-10T08:35:35;8.93;;;5.40;;
26750;SDS011;14345;48.272;25.926;2023-05-10T08:38:01;5.93;;;4.40;;
26750;SDS011;14345;48.272;25.926;2023-05-10T08:40:27;12.50;;;6.28;;
26750;SDS011;14345;48.272;25.926;2023-05-10T08:43:02;8.35;;;6.03;;
26750;SDS011;14345;48.272;25.926;2023-05-10T08:45:32;5.80;;;4.28;;
26750;SDS011;14345;48.272;25.926;2023-05-10T08:47:59;7.05;;;5.00;;
26750;SDS011;14345;48.272;25.926;2023-05-10T08:50:27;6.53;;;4.55;;
26750;SDS011;14345;48.272;25.926;2023-05-10T08:52:53;7.60;;;4.13;;
26750;SDS011;14345;48.272;25.926;2023-05-10T08:55:21;10.73;;;4.40;;
26750;SDS011;14345;48.272;25.926;2023-05-10T08:57:48;6.85;;;3.70;;
26750;SDS011;14345;48.272;25.926;2023-05-10T09:00:15;8.45;;;4.60;;
26750;SDS011;14345;48.272;25.926;2023-05-10T09:02:42;5.50;;;4.28;;
26750;SDS011;14345;48.272;25.926;2023-05-10T09:05:10;5.28;;;3.97;;
26750;SDS011;14345;48.272;25.926;2023-05-10T09:07:36;4.30;;;3.28;;
26750;SDS011;14345;48.272;25.926;2023-05-10T09:10:02;5.30;;;3.72;;
26750;SDS011;14345;48.272;25.926;2023-05-10T09:12:29;4.25;;;2.88;;
26750;SDS011;14345;48.272;25.926;2023-05-10T09:14:55;5.15;;;2.60;;
26750;SDS011;14345;48.272;25.926;2023-05-10T09:17:23;5.82;;;2.67;;
26750;SDS011;14345;48.272;25.926;2023-05-10T09:19:50;3.10;;;2.42;;
26750;SDS011;14345;48.272;25.926;2023-05-10T09:22:16;4.55;;;2.38;;
26750;SDS011;14345;48.272;25.926;2023-05-10T09:24:42;3.25;;;2.10;;
26750;SDS011;14345;48.272;25.926;2023-05-10T09:27:10;3.70;;;2.28;;
26750;SDS011;14345;48.272;25.926;2023-05-10T09:29:39;2.40;;;1.98;;
26750;SDS011;14345;48.272;25.926;2023-05-10T09:32:06;8.88;;;2.35;;
26750;SDS011;14345;48.272;25.926;2023-05-10T09:34:32;3.38;;;2.20;;
26750;SDS011;14345;48.272;25.926;2023-05-10T09:37:00;3.35;;;2.22;;
26750;SDS011;14345;48.272;25.926;2023-05-10T09:39:34;5.22;;;2.10;;
26750;SDS011;14345;48.272;25.926;2023-05-10T09:42:04;8.63;;;3.10;;
26750;SDS011;14345;48.272;25.926;2023-05-10T09:44:31;4.72;;;2.78;;
26750;SDS011;14345;48.272;25.926;2023-05-10T09:46:57;4.90;;;2.88;;
26750;SDS011;14345;48.272;25.926;2023-05-10T09:49:23;5.95;;;2.83;;
26750;SDS011;14345;48.272;25.926;2023-05-10T09:51:59;2.63;;;2.15;;
26750;SDS011;14345;48.272;25.926;2023-05-10T09:54:26;3.30;;;2.03;;
26750;SDS011;14345;48.272;25.926;2023-05-10T09:56:52;6.78;;;1.80;;
26750;SDS011;14345;48.272;25.926;2023-05-10T09:59:18;3.72;;;2.38;;
26750;SDS011;14345;48.272;25.926;2023-05-10T10:01:49;5.05;;;2.30;;
26750;SDS011;14345;48.272;25.926;2023-05-10T10:04:15;5.28;;;2.60;;
26750;SDS011;14345;48.272;25.926;2023-05-10T10:06:41;4.38;;;2.60;;
26750;SDS011;14345;48.272;25.926;2023-05-10T10:09:07;4.97;;;2.17;;
26750;SDS011;14345;48.272;25.926;2023-05-10T10:11:34;7.45;;;2.50;;
26750;SDS011;14345;48.272;25.926;2023-05-10T10:14:00;6.22;;;2.47;;
26750;SDS011;14345;48.272;25.926;2023-05-10T10:16:27;4.95;;;2.33;;
26750;SDS011;14345;48.272;25.926;2023-05-10T10:18:53;8.35;;;2.50;;
26750;SDS011;14345;48.272;25.926;2023-05-10T10:21:19;2.55;;;2.10;;
26750;SDS011;14345;48.272;25.926;2023-05-10T10:23:45;2.75;;;1.85;;
26750;SDS011;14345;48.272;25.926;2023-05-10T10:26:11;3.97;;;2.15;;
26750;SDS011;14345;48.272;25.926;2023-05-10T10:31:13;5.07;;;2.10;;
26750;SDS011;14345;48.272;25.926;2023-05-10T10:34:00;5.03;;;1.70;;
26750;SDS011;14345;48.272;25.926;2023-05-10T10:36:27;6.00;;;2.67;;
26750;SDS011;14345;48.272;25.926;2023-05-10T10:49:27;3.28;;;2.08;;
26750;SDS011;14345;48.272;25.926;2023-05-10T10:54:38;3.55;;;2.00;;
26750;SDS011;14345;48.272;25.926;2023-05-10T10:57:10;3.15;;;1.92;;
26750;SDS011;14345;48.272;25.926;2023-05-10T10:59:41;4.95;;;2.55;;
26750;SDS011;14345;48.272;25.926;2023-05-10T11:02:08;3.50;;;1.95;;
26750;SDS011;14345;48.272;25.926;2023-05-10T11:04:43;5.63;;;2.60;;
26750;SDS011;14345;48.272;25.926;2023-05-10T11:07:17;4.20;;;2.08;;
26750;SDS011;14345;48.272;25.926;2023-05-10T11:09:43;4.97;;;1.98;;
26750;SDS011;14345;48.272;25.926;2023-05-10T11:12:10;2.88;;;1.80;;
26750;SDS011;14345;48.272;25.926;2023-05-10T11:14:36;5.75;;;2.10;;
26750;SDS011;14345;48.272;25.926;2023-05-10T11:17:02;2.80;;;2.00;;
26750;SDS011;14345;48.272;25.926;2023-05-10T11:20:06;3.97;;;2.42;;
26750;SDS011;14345;48.272;25.926;2023-05-10T11:22:48;4.50;;;2.28;;
26750;SDS011;14345;48.272;25.926;2023-05-10T11:25:15;4.50;;;1.70;;
26750;SDS011;14345;48.272;25.926;2023-05-10T11:27:41;2.22;;;1.58;;
26750;SDS011;14345;48.272;25.926;2023-05-10T11:30:09;3.30;;;2.10;;
26750;SDS011;14345;48.272;25.926;2023-05-10T11:32:38;1.65;;;1.55;;
26750;SDS011;14345;48.272;25.926;2023-05-10T11:35:08;3.28;;;1.90;;
26750;SDS011;14345;48.272;25.926;2023-05-10T11:37:34;3.47;;;1.77;;
26750;SDS011;14345;48.272;25.926;2023-05-10T11:40:00;3.08;;;1.83;;
26750;SDS011;14345;48.272;25.926;2023-05-10T11:42:27;1.65;;;1.10;;
26750;SDS011;14345;48.272;25.926;2023-05-10T11:44:54;1.95;;;1.70;;
26750;SDS011;14345;48.272;25.926;2023-05-10T11:47:20;1.70;;;1.23;;
26750;SDS011;14345;48.272;25.926;2023-05-10T11:49:48;2.25;;;1.42;;
26750;SDS011;14345;48.272;25.926;2023-05-10T11:52:15;3.05;;;1.67;;
26750;SDS011;14345;48.272;25.926;2023-05-10T11:54:44;3.40;;;1.80;;
26750;SDS011;14345;48.272;25.926;2023-05-10T11:57:11;2.42;;;1.58;;
26750;SDS011;14345;48.272;25.926;2023-05-10T11:59:37;4.13;;;1.95;;
26750;SDS011;14345;48.272;25.926;2023-05-10T12:02:03;2.70;;;1.50;;
26750;SDS011;14345;48.272;25.926;2023-05-10T12:04:29;5.22;;;2.00;;
26750;SDS011;14345;48.272;25.926;2023-05-10T12:06:55;1.70;;;1.40;;
26750;SDS011;14345;48.272;25.926;2023-05-10T12:09:21;2.78;;;1.40;;
26750;SDS011;14345;48.272;25.926;2023-05-10T12:11:47;2.13;;;1.45;;
26750;SDS011;14345;48.272;25.926;2023-05-10T12:14:13;5.47;;;2.30;;
26750;SDS011;14345;48.272;25.926;2023-05-10T12:16:40;4.15;;;1.88;;
26750;SDS011;14345;48.272;25.926;2023-05-10T12:19:08;2.20;;;1.25;;
26750;SDS011;14345;48.272;25.926;2023-05-10T12:21:34;2.35;;;1.40;;
26750;SDS011;14345;48.272;25.926;2023-05-10T12:24:01;2.22;;;1.40;;
26750;SDS011;14345;48.272;25.926;2023-05-10T12:26:28;2.40;;;1.52;;
26750;SDS011;14345;48.272;25.926;2023-05-10T12:28:55;2.50;;;1.00;;
26750;SDS011;14345;48.272;25.926;2023-05-10T12:31:21;1.35;;;1.00;;
26750;SDS011;14345;48.272;25.926;2023-05-10T12:33:47;3.28;;;1.13;;
26750;SDS011;14345;48.272;25.926;2023-05-10T12:36:14;2.47;;;1.30;;
26750;SDS011;14345;48.272;25.926;2023-05-10T12:38:41;2.38;;;1.42;;
26750;SDS011;14345;48.272;25.926;2023-05-10T12:41:16;3.13;;;1.30;;
26750;SDS011;14345;48.272;25.926;2023-05-10T12:43:42;3.55;;;1.77;;
26750;SDS011;14345;48.272;25.926;2023-05-10T12:46:09;2.45;;;1.80;;
26750;SDS011;14345;48.272;25.926;2023-05-10T12:48:36;3.22;;;1.98;;
26750;SDS011;14345;48.272;25.926;2023-05-10T12:51:02;3.63;;;1.50;;
26750;SDS011;14345;48.272;25.926;2023-05-10T12:53:28;2.28;;;1.40;;
26750;SDS011;14345;48.272;25.926;2023-05-10T12:55:55;1.38;;;1.27;;
26750;SDS011;14345;48.272;25.926;2023-05-10T12:58:21;2.35;;;1.40;;
26750;SDS011;14345;48.272;25.926;2023-05-10T13:00:47;5.30;;;1.50;;
26750;SDS011;14345;48.272;25.926;2023-05-10T13:03:13;2.25;;;1.58;;
26750;SDS011;14345;48.272;25.926;2023-05-10T13:05:40;2.00;;;1.42;;
26750;SDS011;14345;48.272;25.926;2023-05-10T13:08:06;4.95;;;1.92;;
26750;SDS011;14345;48.272;25.926;2023-05-10T13:10:32;3.60;;;1.30;;
26750;SDS011;14345;48.272;25.926;2023-05-10T13:12:58;1.60;;;1.40;;
26750;SDS011;14345;48.272;25.926;2023-05-10T13:15:25;4.65;;;1.70;;
26750;SDS011;14345;48.272;25.926;2023-05-10T13:17:51;4.18;;;1.58;;
26750;SDS011;14345;48.272;25.926;2023-05-10T13:20:17;3.25;;;1.48;;
26750;SDS011;14345;48.272;25.926;2023-05-10T13:22:43;3.55;;;1.38;;
26750;SDS011;14345;48.272;25.926;2023-05-10T13:25:10;4.07;;;1.30;;
26750;SDS011;14345;48.272;25.926;2023-05-10T13:27:36;3.05;;;1.20;;
26750;SDS011;14345;48.272;25.926;2023-05-10T13:30:03;1.67;;;1.30;;
26750;SDS011;14345;48.272;25.926;2023-05-10T13:32:29;5.05;;;1.58;;
26750;SDS011;14345;48.272;25.926;2023-05-10T13:34:55;1.67;;;1.00;;
26750;SDS011;14345;48.272;25.926;2023-05-10T13:37:21;1.88;;;1.20;;
26750;SDS011;14345;48.272;25.926;2023-05-10T13:39:47;2.15;;;1.35;;
26750;SDS011;14345;48.272;25.926;2023-05-10T13:42:14;1.27;;;0.80;;
26750;SDS011;14345;48.272;25.926;2023-05-10T13:44:40;0.80;;;0.80;;
26750;SDS011;14345;48.272;25.926;2023-05-10T13:47:06;4.93;;;1.20;;
26750;SDS011;14345;48.272;25.926;2023-05-10T13:49:32;2.92;;;1.50;;
26750;SDS011;14345;48.272;25.926;2023-05-10T13:51:59;3.75;;;1.83;;
26750;SDS011;14345;48.272;25.926;2023-05-10T13:54:30;4.13;;;1.88;;
26750;SDS011;14345;48.272;25.926;2023-05-10T13:56:56;6.47;;;2.50;;
26750;SDS011;14345;48.272;25.926;2023-05-10T13:59:22;4.03;;;1.60;;
26750;SDS011;14345;48.272;25.926;2023-05-10T14:01:48;2.22;;;1.60;;
26750;SDS011;14345;48.272;25.926;2023-05-10T14:04:15;3.97;;;1.75;;
26750;SDS011;14345;48.272;25.926;2023-05-10T14:06:41;2.72;;;1.42;;
26750;SDS011;14345;48.272;25.926;2023-05-10T14:09:07;5.72;;;1.90;;
26750;SDS011;14345;48.272;25.926;2023-05-10T14:11:33;4.40;;;1.70;;
26750;SDS011;14345;48.272;25.926;2023-05-10T14:13:59;3.35;;;1.65;;
26750;SDS011;14345;48.272;25.926;2023-05-10T14:16:25;4.70;;;2.00;;
26750;SDS011;14345;48.272;25.926;2023-05-10T14:18:52;4.20;;;2.03;;
26750;SDS011;14345;48.272;25.926;2023-05-10T14:21:18;4.70;;;1.80;;
26750;SDS011;14345;48.272;25.926;2023-05-10T14:23:44;5.20;;;2.38;;
26750;SDS011;14345;48.272;25.926;2023-05-10T14:26:10;4.53;;;2.03;;
26750;SDS011;14345;48.272;25.926;2023-05-10T14:28:37;6.13;;;2.05;;
26750;SDS011;14345;48.272;25.926;2023-05-10T14:31:03;3.90;;;1.98;;
26750;SDS011;14345;48.272;25.926;2023-05-10T14:33:30;4.00;;;1.98;;
26750;SDS011;14345;48.272;25.926;2023-05-10T14:35:56;3.22;;;1.77;;
26750;SDS011;14345;48.272;25.926;2023-05-10T14:38:22;4.75;;;1.88;;
26750;SDS011;14345;48.272;25.926;2023-05-10T14:40:48;2.03;;;1.52;;
26750;SDS011;14345;48.272;25.926;2023-05-10T14:43:14;3.03;;;1.48;;
26750;SDS011;14345;48.272;25.926;2023-05-10T14:45:40;2.65;;;1.42;;
26750;SDS011;14345;48.272;25.926;2023-05-10T14:48:06;1.77;;;1.40;;
26750;SDS011;14345;48.272;25.926;2023-05-10T14:50:36;2.38;;;1.40;;
26750;SDS011;14345;48.272;25.926;2023-05-10T14:56:02;4.10;;;1.60;;
26750;SDS011;14345;48.272;25.926;2023-05-10T14:58:28;3.95;;;2.10;;
26750;SDS011;14345;48.272;25.926;2023-05-10T15:00:55;2.10;;;1.60;;
26750;SDS011;14345;48.272;25.926;2023-05-10T15:03:22;2.55;;;2.00;;
26750;SDS011;14345;48.272;25.926;2023-05-10T15:05:48;3.78;;;1.60;;
26750;SDS011;14345;48.272;25.926;2023-05-10T15:08:14;5.00;;;3.20;;